sensor_id;sensor_type;location;lat;lon;timestamp;pressure;altitude;pressure_sealevel;temperature;humidity
2268;BME280;11052;43.338;25.502;2024-02-16T00:02:15;101431.72;;;7.36;100.00
2268;BME280;11052;43.338;25.502;2024-02-16T00:04:43;101436.84;;;7.12;100.00
2268;BME280;11052;43.338;25.502;2024-02-16T00:07:12;101426.53;;;7.18;100.00
2268;BME280;11052;43.338;25.502;2024-02-16T00:09:39;101427.41;;;7.26;100.00
2268;BME280;11052;43.338;25.502;2024-02-16T00:12:06;101429.16;;;7.30;100.00
2268;BME280;11052;43.338;25.502;2024-02-16T00:14:33;101431.72;;;7.27;100.00
2268;BME280;11052;43.338;25.502;2024-02-16T00:17:00;101440.31;;;7.26;100.00
2268;BME280;11052;43.338;25.502;2024-02-16T00:19:27;101437.72;;;7.26;100.00
2268;BME280;11052;43.338;25.502;2024-02-16T00:21:55;101442.88;;;7.28;100.00
2268;BME280;11052;43.338;25.502;2024-02-16T00:24:24;101434.31;;;7.32;100.00
2268;BME280;11052;43.338;25.502;2024-02-16T00:26:51;101439.47;;;7.33;100.00
2268;BME280;11052;43.338;25.502;2024-02-16T00:29:18;101442.91;;;7.32;100.00
2268;BME280;11052;43.338;25.502;2024-02-16T00:31:45;101449.78;;;7.32;100.00
2268;BME280;11052;43.338;25.502;2024-02-16T00:34:14;101447.19;;;7.33;100.00
2268;BME280;11052;43.338;25.502;2024-02-16T00:36:41;101448.06;;;7.31;100.00
2268;BME280;11052;43.338;25.502;2024-02-16T00:39:08;101445.47;;;7.29;100.00
2268;BME280;11052;43.338;25.502;2024-02-16T00:41:36;101446.34;;;7.33;100.00
2268;BME280;11052;43.338;25.502;2024-02-16T00:44:03;101442.91;;;7.31;100.00
2268;BME280;11052;43.338;25.502;2024-02-16T00:46:30;101450.63;;;7.26;100.00
2268;BME280;11052;43.338;25.502;2024-02-16T00:48:57;101448.03;;;7.26;100.00
2268;BME280;11052;43.338;25.502;2024-02-16T00:51:24;101439.44;;;7.27;100.00
2268;BME280;11052;43.338;25.502;2024-02-16T00:53:52;101442.88;;;7.20;100.00
2268;BME280;11052;43.338;25.502;2024-02-16T00:56:19;101440.31;;;7.29;100.00
2268;BME280;11052;43.338;25.502;2024-02-16T00:58:48;101448.03;;;7.26;100.00
2268;BME280;11052;43.338;25.502;2024-02-16T01:01:15;101442.03;;;7.26;100.00
2268;BME280;11052;43.338;25.502;2024-02-16T01:03:42;101435.97;;;7.13;100.00
2268;BME280;11052;43.338;25.502;2024-02-16T01:06:09;101444.59;;;7.19;100.00
2268;BME280;11052;43.338;25.502;2024-02-16T01:08:37;101445.44;;;7.15;100.00
2268;BME280;11052;43.338;25.502;2024-02-16T01:11:04;101443.72;;;7.17;100.00
2268;BME280;11052;43.338;25.502;2024-02-16T01:13:31;101441.16;;;7.19;100.00
2268;BME280;11052;43.338;25.502;2024-02-16T01:15:59;101436.00;;;7.22;100.00
2268;BME280;11052;43.338;25.502;2024-02-16T01:18:28;101433.41;;;7.19;100.00
2268;BME280;11052;43.338;25.502;2024-02-16T01:20:55;101442.88;;;7.21;100.00
2268;BME280;11052;43.338;25.502;2024-02-16T01:23:23;101438.56;;;7.16;100.00
2268;BME280;11052;43.338;25.502;2024-02-16T01:25:50;101433.41;;;7.16;100.00
2268;BME280;11052;43.338;25.502;2024-02-16T01:28:17;101437.72;;;7.17;100.00
2268;BME280;11052;43.338;25.502;2024-02-16T01:30:45;101435.13;;;7.17;100.00
2268;BME280;11052;43.338;25.502;2024-02-16T01:33:13;101438.56;;;7.17;100.00
2268;BME280;11052;43.338;25.502;2024-02-16T01:35:40;101434.28;;;7.16;100.00
2268;BME280;11052;43.338;25.502;2024-02-16T01:38:07;101436.84;;;7.18;100.00
2268;BME280;11052;43.338;25.502;2024-02-16T01:40:34;101430.84;;;7.17;100.00
2268;BME280;11052;43.338;25.502;2024-02-16T01:43:01;101440.28;;;7.14;100.00
2268;BME280;11052;43.338;25.502;2024-02-16T01:45:29;101437.69;;;7.06;100.00
2268;BME280;11052;43.338;25.502;2024-02-16T01:47:56;101433.38;;;6.99;100.00
2268;BME280;11052;43.338;25.502;2024-02-16T01:50:24;101430.78;;;6.98;100.00
2268;BME280;11052;43.338;25.502;2024-02-16T01:52:52;101435.09;;;6.99;100.00
2268;BME280;11052;43.338;25.502;2024-02-16T01:55:20;101424.78;;;7.00;100.00
2268;BME280;11052;43.338;25.502;2024-02-16T01:57:48;101425.63;;;6.99;100.00
2268;BME280;11052;43.338;25.502;2024-02-16T02:00:15;101425.63;;;6.99;100.00
2268;BME280;11052;43.338;25.502;2024-02-16T02:02:44;101428.22;;;7.02;100.00
2268;BME280;11052;43.338;25.502;2024-02-16T02:05:12;101423.94;;;7.04;100.00
2268;BME280;11052;43.338;25.502;2024-02-16T02:07:41;101430.78;;;6.99;100.00
2268;BME280;11052;43.338;25.502;2024-02-16T02:10:09;101434.22;;;6.95;100.00
2268;BME280;11052;43.338;25.502;2024-02-16T02:12:38;101431.63;;;6.97;100.00
2268;BME280;11052;43.338;25.502;2024-02-16T02:15:06;101431.66;;;7.00;100.00
2268;BME280;11052;43.338;25.502;2024-02-16T02:17:34;101429.06;;;7.00;100.00
2268;BME280;11052;43.338;25.502;2024-02-16T02:20:01;101423.06;;;6.99;100.00
2268;BME280;11052;43.338;25.502;2024-02-16T02:22:31;101423.91;;;7.00;100.00
2268;BME280;11052;43.338;25.502;2024-02-16T02:24:58;101422.22;;;7.02;100.00
2268;BME280;11052;43.338;25.502;2024-02-16T02:27:25;101422.22;;;6.91;100.00
2268;BME280;11052;43.338;25.502;2024-02-16T02:29:52;101417.03;;;6.89;100.00
2268;BME280;11052;43.338;25.502;2024-02-16T02:32:19;101424.78;;;6.86;100.00
2268;BME280;11052;43.338;25.502;2024-02-16T02:34:46;101432.50;;;6.89;100.00
2268;BME280;11052;43.338;25.502;2024-02-16T02:37:13;101431.66;;;6.92;100.00
2268;BME280;11052;43.338;25.502;2024-02-16T02:39:42;101432.50;;;6.89;100.00
2268;BME280;11052;43.338;25.502;2024-02-16T02:42:09;101435.91;;;6.81;100.00
2268;BME280;11052;43.338;25.502;2024-02-16T02:44:36;101441.94;;;6.80;100.00
2268;BME280;11052;43.338;25.502;2024-02-16T02:47:04;101440.19;;;6.79;100.00
2268;BME280;11052;43.338;25.502;2024-02-16T02:49:31;101441.06;;;6.76;100.00
2268;BME280;11052;43.338;25.502;2024-02-16T02:52:00;101444.50;;;6.77;100.00
2268;BME280;11052;43.338;25.502;2024-02-16T02:54:27;101445.34;;;6.77;100.00
2268;BME280;11052;43.338;25.502;2024-02-16T02:56:56;101445.34;;;6.79;100.00
2268;BME280;11052;43.338;25.502;2024-02-16T02:59:23;101444.50;;;6.77;100.00
2268;BME280;11052;43.338;25.502;2024-02-16T03:01:50;101447.03;;;6.72;100.00
2268;BME280;11052;43.338;25.502;2024-02-16T03:04:17;101448.78;;;6.73;100.00
2268;BME280;11052;43.338;25.502;2024-02-16T03:06:44;101453.94;;;6.75;100.00
2268;BME280;11052;43.338;25.502;2024-02-16T03:09:11;101454.78;;;6.74;100.00
2268;BME280;11052;43.338;25.502;2024-02-16T03:11:39;101462.50;;;6.74;100.00
2268;BME280;11052;43.338;25.502;2024-02-16T03:14:07;101469.41;;;6.76;100.00
2268;BME280;11052;43.338;25.502;2024-02-16T03:16:34;101464.25;;;6.79;100.00
2268;BME280;11052;43.338;25.502;2024-02-16T03:19:06;101468.56;;;6.82;100.00
2268;BME280;11052;43.338;25.502;2024-02-16T03:21:34;101474.56;;;6.82;100.00
2268;BME280;11052;43.338;25.502;2024-02-16T03:24:01;101479.75;;;6.85;100.00
2268;BME280;11052;43.338;25.502;2024-02-16T03:26:29;101476.31;;;6.83;100.00
2268;BME280;11052;43.338;25.502;2024-02-16T03:28:58;101484.88;;;6.82;100.00
2268;BME280;11052;43.338;25.502;2024-02-16T03:31:26;101472.84;;;6.78;100.00
2268;BME280;11052;43.338;25.502;2024-02-16T03:33:54;101472.84;;;6.80;100.00
2268;BME280;11052;43.338;25.502;2024-02-16T03:36:21;101478.84;;;6.76;100.00
2268;BME280;11052;43.338;25.502;2024-02-16T03:38:49;101477.13;;;6.78;100.00
2268;BME280;11052;43.338;25.502;2024-02-16T03:41:19;101481.44;;;6.80;100.00
2268;BME280;11052;43.338;25.502;2024-02-16T03:43:47;101481.44;;;6.79;100.00
2268;BME280;11052;43.338;25.502;2024-02-16T03:46:14;101482.28;;;6.78;100.00
2268;BME280;11052;43.338;25.502;2024-02-16T03:48:43;101489.13;;;6.71;100.00
2268;BME280;11052;43.338;25.502;2024-02-16T03:51:10;101489.97;;;6.70;100.00
2268;BME280;11052;43.338;25.502;2024-02-16T03:53:37;101490.84;;;6.74;100.00
2268;BME280;11052;43.338;25.502;2024-02-16T03:56:04;101496.88;;;6.74;100.00
2268;BME280;11052;43.338;25.502;2024-02-16T03:58:33;101494.28;;;6.74;100.00
2268;BME280;11052;43.338;25.502;2024-02-16T04:01:00;101494.28;;;6.73;100.00
2268;BME280;11052;43.338;25.502;2024-02-16T04:03:27;101496.84;;;6.68;100.00
2268;BME280;11052;43.338;25.502;2024-02-16T04:05:56;101490.84;;;6.72;100.00
2268;BME280;11052;43.338;25.502;2024-02-16T04:08:25;101492.56;;;6.73;100.00
2268;BME280;11052;43.338;25.502;2024-02-16T04:10:52;101498.59;;;6.75;100.00
2268;BME280;11052;43.338;25.502;2024-02-16T04:13:19;101493.41;;;6.71;100.00
2268;BME280;11052;43.338;25.502;2024-02-16T04:15:46;101501.97;;;6.64;100.00
2268;BME280;11052;43.338;25.502;2024-02-16T04:18:13;101498.53;;;6.66;100.00
2268;BME280;11052;43.338;25.502;2024-02-16T04:20:40;101506.28;;;6.68;100.00
2268;BME280;11052;43.338;25.502;2024-02-16T04:23:09;101510.56;;;6.63;100.00
2268;BME280;11052;43.338;25.502;2024-02-16T04:25:36;101505.38;;;6.61;100.00
2268;BME280;11052;43.338;25.502;2024-02-16T04:28:04;101515.69;;;6.61;100.00
2268;BME280;11052;43.338;25.502;2024-02-16T04:30:31;101512.28;;;6.67;100.00
2268;BME280;11052;43.338;25.502;2024-02-16T04:32:58;101510.59;;;6.69;100.00
2268;BME280;11052;43.338;25.502;2024-02-16T04:35:25;101507.16;;;6.71;100.00
2268;BME280;11052;43.338;25.502;2024-02-16T04:37:52;101518.34;;;6.72;100.00
2268;BME280;11052;43.338;25.502;2024-02-16T04:40:21;101509.75;;;6.71;100.00
2268;BME280;11052;43.338;25.502;2024-02-16T04:42:48;101521.75;;;6.71;100.00
2268;BME280;11052;43.338;25.502;2024-02-16T04:45:15;101516.59;;;6.69;100.00
2268;BME280;11052;43.338;25.502;2024-02-16T04:47:43;101525.19;;;6.68;100.00
2268;BME280;11052;43.338;25.502;2024-02-16T04:50:10;101520.00;;;6.64;100.00
2268;BME280;11052;43.338;25.502;2024-02-16T04:52:37;101515.69;;;6.61;100.00
2268;BME280;11052;43.338;25.502;2024-02-16T04:55:06;101520.81;;;6.58;100.00
2268;BME280;11052;43.338;25.502;2024-02-16T04:57:35;101523.41;;;6.56;100.00
2268;BME280;11052;43.338;25.502;2024-02-16T05:00:03;101519.94;;;6.53;100.00
2268;BME280;11052;43.338;25.502;2024-02-16T05:02:30;101526.84;;;6.57;100.00
2268;BME280;11052;43.338;25.502;2024-02-16T05:04:57;101519.94;;;6.53;100.00
2268;BME280;11052;43.338;25.502;2024-02-16T05:07:24;101519.94;;;6.51;100.00
2268;BME280;11052;43.338;25.502;2024-02-16T05:09:51;101522.53;;;6.56;100.00
2268;BME280;11052;43.338;25.502;2024-02-16T05:12:23;101519.09;;;6.57;100.00
2268;BME280;11052;43.338;25.502;2024-02-16T05:14:52;101522.56;;;6.59;100.00
2268;BME280;11052;43.338;25.502;2024-02-16T05:17:19;101529.44;;;6.63;100.00
2268;BME280;11052;43.338;25.502;2024-02-16T05:19:48;101528.63;;;6.67;100.00
2268;BME280;11052;43.338;25.502;2024-02-16T05:22:15;101529.47;;;6.69;100.00
2268;BME280;11052;43.338;25.502;2024-02-16T05:24:44;101525.19;;;6.71;100.00
2268;BME280;11052;43.338;25.502;2024-02-16T05:27:11;101530.34;;;6.70;100.00
2268;BME280;11052;43.338;25.502;2024-02-16T05:29:38;101530.34;;;6.68;100.00
2268;BME280;11052;43.338;25.502;2024-02-16T05:32:07;101533.72;;;6.61;100.00
2268;BME280;11052;43.338;25.502;2024-02-16T05:34:36;101534.59;;;6.63;100.00
2268;BME280;11052;43.338;25.502;2024-02-16T05:37:04;101545.78;;;6.65;100.00
2268;BME280;11052;43.338;25.502;2024-02-16T05:39:33;101543.19;;;6.62;100.00
2268;BME280;11052;43.338;25.502;2024-02-16T05:42:02;101538.88;;;6.61;100.00
2268;BME280;11052;43.338;25.502;2024-02-16T05:44:29;101544.06;;;6.64;100.00
2268;BME280;11052;43.338;25.502;2024-02-16T05:46:58;101544.94;;;6.68;100.00
2268;BME280;11052;43.338;25.502;2024-02-16T05:49:27;101550.06;;;6.62;100.00
2268;BME280;11052;43.338;25.502;2024-02-16T05:51:55;101550.06;;;6.63;100.00
2268;BME280;11052;43.338;25.502;2024-02-16T05:54:42;101548.38;;;6.70;100.00
2268;BME280;11052;43.338;25.502;2024-02-16T05:57:09;101557.88;;;6.75;100.00
2268;BME280;11052;43.338;25.502;2024-02-16T05:59:36;101560.47;;;6.78;100.00
2268;BME280;11052;43.338;25.502;2024-02-16T06:02:04;101558.75;;;6.80;100.00
2268;BME280;11052;43.338;25.502;2024-02-16T06:04:34;101567.38;;;6.87;100.00
2268;BME280;11052;43.338;25.502;2024-02-16T06:07:01;101570.84;;;6.90;100.00
2268;BME280;11052;43.338;25.502;2024-02-16T06:09:28;101571.72;;;6.93;100.00
2268;BME280;11052;43.338;25.502;2024-02-16T06:12:02;101577.72;;;6.93;100.00
2268;BME280;11052;43.338;25.502;2024-02-16T06:14:30;101586.28;;;6.94;100.00
2268;BME280;11052;43.338;25.502;2024-02-16T06:16:58;101586.28;;;6.94;100.00
2268;BME280;11052;43.338;25.502;2024-02-16T06:19:25;101582.84;;;6.95;100.00
2268;BME280;11052;43.338;25.502;2024-02-16T06:21:54;101576.00;;;6.98;100.00
2268;BME280;11052;43.338;25.502;2024-02-16T06:24:21;101582.06;;;7.06;100.00
2268;BME280;11052;43.338;25.502;2024-02-16T06:26:49;101584.66;;;7.11;100.00
2268;BME280;11052;43.338;25.502;2024-02-16T06:29:17;101586.41;;;7.16;100.00
2268;BME280;11052;43.338;25.502;2024-02-16T06:31:45;101583.00;;;7.20;100.00
2268;BME280;11052;43.338;25.502;2024-02-16T06:34:13;101578.75;;;7.32;100.00
2268;BME280;11052;43.338;25.502;2024-02-16T06:36:40;101577.00;;;7.24;100.00
2268;BME280;11052;43.338;25.502;2024-02-16T06:39:09;101586.47;;;7.32;100.00
2268;BME280;11052;43.338;25.502;2024-02-16T06:41:36;101573.59;;;7.35;100.00
2268;BME280;11052;43.338;25.502;2024-02-16T06:44:04;101573.63;;;7.42;100.00
2268;BME280;11052;43.338;25.502;2024-02-16T06:46:31;101581.38;;;7.48;100.00
2268;BME280;11052;43.338;25.502;2024-02-16T06:48:58;101572.78;;;7.49;100.00
2268;BME280;11052;43.338;25.502;2024-02-16T06:51:25;101578.81;;;7.56;100.00
2268;BME280;11052;43.338;25.502;2024-02-16T06:53:54;101576.25;;;7.62;100.00
2268;BME280;11052;43.338;25.502;2024-02-16T06:56:22;101587.47;;;7.69;100.00
2268;BME280;11052;43.338;25.502;2024-02-16T06:58:50;101580.59;;;7.72;100.00
2268;BME280;11052;43.338;25.502;2024-02-16T07:01:17;101584.03;;;7.79;100.00
2268;BME280;11052;43.338;25.502;2024-02-16T07:03:45;101578.00;;;7.86;100.00
2268;BME280;11052;43.338;25.502;2024-02-16T07:06:12;101578.00;;;7.90;100.00
2268;BME280;11052;43.338;25.502;2024-02-16T07:08:40;101583.19;;;7.94;100.00
2268;BME280;11052;43.338;25.502;2024-02-16T07:11:07;101584.91;;;8.02;100.00
2268;BME280;11052;43.338;25.502;2024-02-16T07:13:39;101573.72;;;8.11;100.00
2268;BME280;11052;43.338;25.502;2024-02-16T07:16:06;101576.31;;;8.18;100.00
2268;BME280;11052;43.338;25.502;2024-02-16T07:18:33;101572.88;;;8.19;100.00
2268;BME280;11052;43.338;25.502;2024-02-16T07:21:01;101574.59;;;8.30;100.00
2268;BME280;11052;43.338;25.502;2024-02-16T07:23:28;101578.91;;;8.29;100.00
2268;BME280;11052;43.338;25.502;2024-02-16T07:25:56;101582.38;;;8.33;100.00
2268;BME280;11052;43.338;25.502;2024-02-16T07:28:23;101584.97;;;8.34;100.00
2268;BME280;11052;43.338;25.502;2024-02-16T07:30:53;101585.81;;;8.42;100.00
2268;BME280;11052;43.338;25.502;2024-02-16T07:33:20;101584.94;;;8.62;100.00
2268;BME280;11052;43.338;25.502;2024-02-16T07:35:50;101585.81;;;8.65;100.00
2268;BME280;11052;43.338;25.502;2024-02-16T07:38:17;101585.75;;;8.82;100.00
2268;BME280;11052;43.338;25.502;2024-02-16T07:40:44;101582.31;;;8.75;100.00
2268;BME280;11052;43.338;25.502;2024-02-16T07:43:12;101586.59;;;8.85;100.00
2268;BME280;11052;43.338;25.502;2024-02-16T07:45:39;101595.19;;;8.97;100.00
2268;BME280;11052;43.338;25.502;2024-02-16T07:48:08;101596.91;;;9.01;100.00
2268;BME280;11052;43.338;25.502;2024-02-16T07:50:35;101596.03;;;9.08;100.00
2268;BME280;11052;43.338;25.502;2024-02-16T07:53:02;101600.34;;;9.09;100.00
2268;BME280;11052;43.338;25.502;2024-02-16T07:55:29;101597.78;;;8.95;100.00
2268;BME280;11052;43.338;25.502;2024-02-16T07:57:56;101601.25;;;8.86;100.00
2268;BME280;11052;43.338;25.502;2024-02-16T08:00:24;101597.75;;;9.01;100.00
2268;BME280;11052;43.338;25.502;2024-02-16T08:02:52;101611.56;;;8.97;100.00
2268;BME280;11052;43.338;25.502;2024-02-16T08:05:20;101610.72;;;8.84;100.00
2268;BME280;11052;43.338;25.502;2024-02-16T08:07:47;101610.75;;;8.81;100.00
2268;BME280;11052;43.338;25.502;2024-02-16T08:10:14;101608.16;;;8.81;100.00
2268;BME280;11052;43.338;25.502;2024-02-16T08:12:42;101617.63;;;8.84;100.00
2268;BME280;11052;43.338;25.502;2024-02-16T08:15:09;101611.59;;;8.86;100.00
2268;BME280;11052;43.338;25.502;2024-02-16T08:17:36;101614.19;;;8.74;100.00
2268;BME280;11052;43.338;25.502;2024-02-16T08:20:04;101618.53;;;8.66;100.00
2268;BME280;11052;43.338;25.502;2024-02-16T08:22:33;101621.13;;;8.65;100.00
2268;BME280;11052;43.338;25.502;2024-02-16T08:25:01;101613.38;;;8.63;100.00
2268;BME280;11052;43.338;25.502;2024-02-16T08:27:28;101619.38;;;8.68;100.00
2268;BME280;11052;43.338;25.502;2024-02-16T08:29:56;101615.06;;;8.69;100.00
2268;BME280;11052;43.338;25.502;2024-02-16T08:32:23;101611.66;;;8.64;100.00
2268;BME280;11052;43.338;25.502;2024-02-16T08:34:50;101615.09;;;8.60;100.00
2268;BME280;11052;43.338;25.502;2024-02-16T08:37:19;101618.53;;;8.63;100.00
2268;BME280;11052;43.338;25.502;2024-02-16T08:39:48;101609.94;;;8.57;100.00
2268;BME280;11052;43.338;25.502;2024-02-16T08:42:15;101618.53;;;8.62;100.00
2268;BME280;11052;43.338;25.502;2024-02-16T08:44:42;101610.75;;;8.68;100.00
2268;BME280;11052;43.338;25.502;2024-02-16T08:47:09;101616.78;;;8.68;100.00
2268;BME280;11052;43.338;25.502;2024-02-16T08:49:36;101615.91;;;8.86;100.00
2268;BME280;11052;43.338;25.502;2024-02-16T08:52:06;101620.19;;;8.92;100.00
2268;BME280;11052;43.338;25.502;2024-02-16T08:54:33;101616.75;;;8.99;100.00
2268;BME280;11052;43.338;25.502;2024-02-16T08:57:02;101623.66;;;8.83;100.00
2268;BME280;11052;43.338;25.502;2024-02-16T08:59:29;101626.25;;;8.84;100.00
2268;BME280;11052;43.338;25.502;2024-02-16T09:01:56;101621.94;;;8.83;100.00
2268;BME280;11052;43.338;25.502;2024-02-16T09:04:24;101618.47;;;8.97;100.00
2268;BME280;11052;43.338;25.502;2024-02-16T09:06:51;101627.94;;;9.04;100.00
2268;BME280;11052;43.338;25.502;2024-02-16T09:09:18;101621.03;;;9.03;100.00
2268;BME280;11052;43.338;25.502;2024-02-16T09:11:46;101629.66;;;9.05;100.00
2268;BME280;11052;43.338;25.502;2024-02-16T09:14:14;101627.88;;;9.22;100.00
2268;BME280;11052;43.338;25.502;2024-02-16T09:16:41;101629.59;;;9.28;100.00
2268;BME280;11052;43.338;25.502;2024-02-16T09:19:09;101634.72;;;9.38;100.00
2268;BME280;11052;43.338;25.502;2024-02-16T09:21:36;101625.25;;;9.33;100.00
2268;BME280;11052;43.338;25.502;2024-02-16T09:24:04;101633.03;;;9.34;100.00
2268;BME280;11052;43.338;25.502;2024-02-16T09:26:36;101643.38;;;9.30;100.00
2268;BME280;11052;43.338;25.502;2024-02-16T09:29:03;101632.16;;;9.34;100.00
2268;BME280;11052;43.338;25.502;2024-02-16T09:31:31;101633.91;;;9.29;100.00
2268;BME280;11052;43.338;25.502;2024-02-16T09:33:58;101639.88;;;9.47;100.00
2268;BME280;11052;43.338;25.502;2024-02-16T09:36:26;101638.13;;;9.52;100.00
2268;BME280;11052;43.338;25.502;2024-02-16T09:38:53;101634.69;;;9.47;100.00
2268;BME280;11052;43.338;25.502;2024-02-16T09:41:20;101636.31;;;9.64;100.00
2268;BME280;11052;43.338;25.502;2024-02-16T09:43:47;101636.31;;;9.65;100.00
2268;BME280;11052;43.338;25.502;2024-02-16T09:46:15;101635.41;;;9.72;100.00
2268;BME280;11052;43.338;25.502;2024-02-16T09:48:46;101638.88;;;9.71;100.00
2268;BME280;11052;43.338;25.502;2024-02-16T09:51:18;101640.63;;;9.66;100.00
2268;BME280;11052;43.338;25.502;2024-02-16T09:53:50;101641.44;;;9.74;100.00
2268;BME280;11052;43.338;25.502;2024-02-16T09:56:19;101637.16;;;9.67;100.00
2268;BME280;11052;43.338;25.502;2024-02-16T09:58:46;101631.06;;;9.80;100.00
2268;BME280;11052;43.338;25.502;2024-02-16T10:01:18;101633.66;;;9.77;100.00
2268;BME280;11052;43.338;25.502;2024-02-16T10:03:48;101631.91;;;9.82;100.00
2268;BME280;11052;43.338;25.502;2024-02-16T10:06:16;101638.03;;;9.68;100.00
2268;BME280;11052;43.338;25.502;2024-02-16T10:08:50;101634.59;;;9.66;100.00
2268;BME280;11052;43.338;25.502;2024-02-16T10:11:18;101634.56;;;9.69;100.00
2268;BME280;11052;43.338;25.502;2024-02-16T10:13:56;101631.03;;;9.85;100.00
2268;BME280;11052;43.338;25.502;2024-02-16T10:16:23;101628.44;;;9.88;100.00
2268;BME280;11052;43.338;25.502;2024-02-16T10:18:52;101623.22;;;9.91;100.00
2268;BME280;11052;43.338;25.502;2024-02-16T10:21:25;101622.44;;;9.80;100.00
2268;BME280;11052;43.338;25.502;2024-02-16T10:24:00;101618.09;;;9.82;100.00
2268;BME280;11052;43.338;25.502;2024-02-16T10:26:28;101618.97;;;9.84;100.00
2268;BME280;11052;43.338;25.502;2024-02-16T10:28:55;101613.75;;;9.85;100.00
2268;BME280;11052;43.338;25.502;2024-02-16T10:31:24;101605.19;;;9.76;100.00
2268;BME280;11052;43.338;25.502;2024-02-16T10:33:59;101606.88;;;9.84;100.00
2268;BME280;11052;43.338;25.502;2024-02-16T10:36:27;101600.78;;;9.92;100.00
2268;BME280;11052;43.338;25.502;2024-02-16T10:38:55;101593.78;;;10.04;100.00
2268;BME280;11052;43.338;25.502;2024-02-16T10:41:26;101588.50;;;10.24;100.00
2268;BME280;11052;43.338;25.502;2024-02-16T10:43:55;101588.44;;;10.30;100.00
2268;BME280;11052;43.338;25.502;2024-02-16T10:46:23;101591.72;;;10.49;100.00
2268;BME280;11052;43.338;25.502;2024-02-16T10:48:51;101590.00;;;10.46;100.00
2268;BME280;11052;43.338;25.502;2024-02-16T10:51:24;101589.06;;;10.54;100.00
2268;BME280;11052;43.338;25.502;2024-02-16T10:53:53;101588.19;;;10.55;100.00
2268;BME280;11052;43.338;25.502;2024-02-16T10:56:32;101587.19;;;10.71;100.00
2268;BME280;11052;43.338;25.502;2024-02-16T10:59:01;101577.75;;;10.62;100.00
2268;BME280;11052;43.338;25.502;2024-02-16T11:01:32;101574.19;;;10.74;100.00
2268;BME280;11052;43.338;25.502;2024-02-16T11:04:04;101577.81;;;10.58;100.00
2268;BME280;11052;43.338;25.502;2024-02-16T11:06:46;101573.50;;;10.55;100.00
2268;BME280;11052;43.338;25.502;2024-02-16T11:09:28;101568.06;;;10.79;100.00
2268;BME280;11052;43.338;25.502;2024-02-16T11:11:59;101562.72;;;10.95;100.00
2268;BME280;11052;43.338;25.502;2024-02-16T11:14:34;101558.25;;;11.07;100.00
2268;BME280;11052;43.338;25.502;2024-02-16T11:17:02;101561.03;;;10.92;100.00
2268;BME280;11052;43.338;25.502;2024-02-16T11:19:34;101568.16;;;10.73;100.00
2268;BME280;11052;43.338;25.502;2024-02-16T11:22:05;101557.75;;;10.76;100.00
2268;BME280;11052;43.338;25.502;2024-02-16T11:24:35;101563.97;;;10.59;100.00
2268;BME280;11052;43.338;25.502;2024-02-16T11:27:02;101561.16;;;10.78;100.00
2268;BME280;11052;43.338;25.502;2024-02-16T11:29:32;101561.88;;;10.93;100.00
2268;BME280;11052;43.338;25.502;2024-02-16T11:32:00;101558.28;;;11.04;100.00
2268;BME280;11052;43.338;25.502;2024-02-16T11:34:29;101561.59;;;11.17;100.00
2268;BME280;11052;43.338;25.502;2024-02-16T11:36:57;101563.47;;;11.04;100.00
2268;BME280;11052;43.338;25.502;2024-02-16T11:39:26;101558.38;;;10.98;100.00
2268;BME280;11052;43.338;25.502;2024-02-16T11:42:02;101556.53;;;11.08;100.00
2268;BME280;11052;43.338;25.502;2024-02-16T11:44:29;101550.41;;;11.12;100.00
2268;BME280;11052;43.338;25.502;2024-02-16T11:46:57;101546.34;;;10.91;95.23
2268;BME280;11052;43.338;25.502;2024-02-16T11:49:24;101549.03;;;10.82;95.48
2268;BME280;11052;43.338;25.502;2024-02-16T11:51:51;101544.63;;;10.90;94.55
2268;BME280;11052;43.338;25.502;2024-02-16T11:54:19;101535.91;;;10.94;92.46
2268;BME280;11052;43.338;25.502;2024-02-16T11:56:48;101540.25;;;10.94;94.76
2268;BME280;11052;43.338;25.502;2024-02-16T11:59:17;101538.44;;;11.02;94.57
2268;BME280;11052;43.338;25.502;2024-02-16T12:01:49;101536.75;;;10.98;96.96
2268;BME280;11052;43.338;25.502;2024-02-16T12:04:24;101541.03;;;11.02;98.05
2268;BME280;11052;43.338;25.502;2024-02-16T12:06:52;101540.22;;;10.97;94.92
2268;BME280;11052;43.338;25.502;2024-02-16T12:09:20;101536.69;;;11.04;95.76
2268;BME280;11052;43.338;25.502;2024-02-16T12:11:49;101537.59;;;11.00;95.26
2268;BME280;11052;43.338;25.502;2024-02-16T12:14:17;101542.72;;;11.04;97.28
2268;BME280;11052;43.338;25.502;2024-02-16T12:16:47;101529.63;;;11.13;97.76
2268;BME280;11052;43.338;25.502;2024-02-16T12:19:15;101535.66;;;11.17;96.43
2268;BME280;11052;43.338;25.502;2024-02-16T12:21:42;101534.59;;;11.29;97.77
2268;BME280;11052;43.338;25.502;2024-02-16T12:24:09;101535.41;;;11.34;96.64
2268;BME280;11052;43.338;25.502;2024-02-16T12:26:37;101529.53;;;11.23;95.32
2268;BME280;11052;43.338;25.502;2024-02-16T12:29:06;101533.75;;;11.28;94.92
2268;BME280;11052;43.338;25.502;2024-02-16T12:31:34;101531.03;;;11.36;95.63
2268;BME280;11052;43.338;25.502;2024-02-16T12:34:03;101530.03;;;11.46;98.15
2268;BME280;11052;43.338;25.502;2024-02-16T12:36:32;101528.28;;;11.48;98.05
2268;BME280;11052;43.338;25.502;2024-02-16T12:38:59;101527.34;;;11.54;97.12
2268;BME280;11052;43.338;25.502;2024-02-16T12:41:28;101532.47;;;11.58;97.25
2268;BME280;11052;43.338;25.502;2024-02-16T12:43:55;101527.25;;;11.60;94.98
2268;BME280;11052;43.338;25.502;2024-02-16T12:46:23;101527.38;;;11.50;95.74
2268;BME280;11052;43.338;25.502;2024-02-16T12:48:51;101528.44;;;11.37;91.93
2268;BME280;11052;43.338;25.502;2024-02-16T12:51:19;101527.44;;;11.47;92.81
2268;BME280;11052;43.338;25.502;2024-02-16T12:53:46;101524.91;;;11.41;93.19
2268;BME280;11052;43.338;25.502;2024-02-16T12:56:13;101527.38;;;11.50;91.24